Time;durP1;ratioP1;P1;durP2;ratioP2;P2;SDS_P1;SDS_P2;PMS_P1;PMS_P2;Temp;Humidity;BMP_temperature;BMP_pressure;BME280_temperature;BME280_humidity;BME280_pressure;Samples;Min_cycle;Max_cycle;Signal;HPM_P1;HPM_P2
2023/03/09 00:00:48;;;;;;;0.25;0.25;;;3.90;99.90;;;;;;5029497;28;20040;-62
2023/03/09 00:03:16;;;;;;;0.98;0.90;;;3.90;99.90;;;;;;5029699;28;20046;-62
2023/03/09 00:05:43;;;;;;;0.43;0.43;;;3.90;99.90;;;;;;5027081;28;20034;-62
2023/03/09 00:08:10;;;;;;;0.10;0.10;;;3.90;99.90;;;;;;5028666;28;20783;-62
2023/03/09 00:10:40;;;;;;;0.55;0.55;;;3.90;99.90;;;;;;5028293;28;20052;-62
2023/03/09 00:13:05;;;;;;;0.30;0.30;;;3.90;99.90;;;;;;5029054;28;20060;-62
2023/03/09 00:15:31;;;;;;;0.75;0.75;;;3.90;99.90;;;;;;5028203;28;20046;-62
2023/03/09 00:17:56;;;;;;;0.15;0.15;;;3.90;99.90;;;;;;5028640;28;20045;-62
2023/03/09 00:20:24;;;;;;;1.00;1.00;;;3.90;99.90;;;;;;5015956;28;20050;-62
2023/03/09 00:22:51;;;;;;;0.30;0.30;;;3.80;99.90;;;;;;5028468;28;20042;-62
2023/03/09 00:25:18;;;;;;;0.10;0.10;;;3.80;99.90;;;;;;5025821;28;20046;-62
2023/03/09 00:27:50;;;;;;;1.80;1.63;;;3.80;99.90;;;;;;5027285;28;20059;-62
2023/03/09 00:30:17;;;;;;;0.60;0.60;;;3.80;99.90;;;;;;5028029;28;20053;-62
2023/03/09 00:32:43;;;;;;;0.30;0.30;;;3.80;99.90;;;;;;5010097;28;20401;-62
2023/03/09 00:35:09;;;;;;;1.25;1.17;;;3.80;99.90;;;;;;5026618;28;20075;-62
2023/03/09 00:37:37;;;;;;;0.20;0.20;;;3.80;99.90;;;;;;5028362;28;20076;-62
2023/03/09 00:40:06;;;;;;;0.40;0.40;;;3.80;99.90;;;;;;5027299;28;20140;-62
2023/03/09 00:42:32;;;;;;;0.60;0.47;;;3.70;99.90;;;;;;5027369;28;20514;-62
2023/03/09 00:44:59;;;;;;;0.40;0.40;;;3.70;99.90;;;;;;5027508;28;20084;-62
2023/03/09 00:47:24;;;;;;;0.15;0.15;;;3.70;99.90;;;;;;5027361;28;20064;-62
2023/03/09 00:49:50;;;;;;;0.20;0.20;;;3.60;99.90;;;;;;5026567;28;20152;-62
2023/03/09 00:52:16;;;;;;;3.35;3.00;;;3.60;99.90;;;;;;5028656;28;20677;-62
2023/03/09 00:54:41;;;;;;;0.52;0.50;;;3.60;99.90;;;;;;5026594;28;20052;-62
2023/03/09 00:57:07;;;;;;;2.22;2.10;;;3.50;99.90;;;;;;5028040;28;20041;-62
2023/03/09 00:59:32;;;;;;;0.20;0.20;;;3.50;99.90;;;;;;5028115;28;20050;-62
2023/03/09 01:01:59;;;;;;;0.47;0.47;;;3.50;99.90;;;;;;5025641;28;20056;-62
2023/03/09 01:04:24;;;;;;;0.35;0.35;;;3.40;99.90;;;;;;5025764;28;20041;-62
2023/03/09 01:06:53;;;;;;;0.20;0.20;;;3.50;99.90;;;;;;5027059;28;20048;-62
2023/03/09 01:09:19;;;;;;;0.20;0.20;;;3.50;99.90;;;;;;5026794;28;20046;-62
2023/03/09 01:11:44;;;;;;;0.57;0.57;;;3.40;99.90;;;;;;5028115;28;20451;-62
2023/03/09 01:14:10;;;;;;;0.52;0.52;;;3.30;99.90;;;;;;5025215;28;20057;-62
2023/03/09 01:16:36;;;;;;;1.05;1.05;;;3.30;99.90;;;;;;5028252;28;20041;-62
2023/03/09 01:19:01;;;;;;;0.45;0.45;;;3.30;99.90;;;;;;5026143;28;20041;-62
2023/03/09 01:21:27;;;;;;;0.25;0.25;;;3.30;99.90;;;;;;5026686;28;20057;-62
2023/03/09 01:23:52;;;;;;;0.13;0.13;;;3.20;99.90;;;;;;5028002;28;20161;-61
2023/03/09 01:26:19;;;;;;;0.75;0.75;;;3.20;99.90;;;;;;5027125;28;20126;-62
2023/03/09 01:28:46;;;;;;;0.10;0.10;;;3.20;99.90;;;;;;5026010;28;20067;-62
2023/03/09 01:31:14;;;;;;;0.40;0.40;;;3.10;99.90;;;;;;5016645;28;20478;-62
2023/03/09 01:33:41;;;;;;;0.10;0.10;;;3.10;99.90;;;;;;5027304;28;20476;-62
2023/03/09 01:36:11;;;;;;;1.58;1.48;;;3.10;99.90;;;;;;5026180;28;20049;-62
2023/03/09 01:38:36;;;;;;;0.68;0.68;;;3.00;99.90;;;;;;5027846;28;20388;-62
2023/03/09 01:41:02;;;;;;;0.95;0.95;;;3.10;99.90;;;;;;5026377;28;20172;-62
2023/03/09 01:43:39;;;;;;;0.25;0.25;;;3.10;99.90;;;;;;5025915;28;20057;-62
2023/03/09 01:46:20;;;;;;;0.82;0.82;;;3.10;99.90;;;;;;5026174;28;20503;-62
2023/03/09 01:49:17;;;;;;;0.60;0.60;;;3.10;99.90;;;;;;5026311;28;20041;-62
2023/03/09 01:51:50;;;;;;;0.10;0.10;;;3.10;99.90;;;;;;5003408;28;20396;-62
2023/03/09 01:54:41;;;;;;;0.10;0.10;;;3.10;99.90;;;;;;5028216;28;20041;-62
2023/03/09 01:57:42;;;;;;;0.80;0.80;;;3.00;99.90;;;;;;5007630;28;20099;-62
2023/03/09 02:00:16;;;;;;;0.28;0.28;;;3.00;99.90;;;;;;5022868;28;20046;-62
2023/03/09 02:02:48;;;;;;;0.45;0.45;;;3.00;99.90;;;;;;5030156;28;20129;-59
2023/03/09 02:05:29;;;;;;;0.20;0.20;;;3.00;99.90;;;;;;5030026;28;20037;-59
2023/03/09 02:07:57;;;;;;;1.48;1.38;;;3.10;99.90;;;;;;5030427;28;20381;-59
2023/03/09 02:10:49;;;;;;;0.15;0.15;;;3.10;99.90;;;;;;5030570;28;20055;-59
2023/03/09 02:13:19;;;;;;;0.25;0.25;;;3.10;99.90;;;;;;5030717;28;20053;-59
2023/03/09 02:15:45;;;;;;;0.57;0.57;;;3.10;99.90;;;;;;5030978;28;20117;-59
2023/03/09 02:18:11;;;;;;;0.30;0.30;;;3.10;99.90;;;;;;5029077;28;20183;-59
2023/03/09 02:20:46;;;;;;;0.20;0.20;;;3.10;99.90;;;;;;5016749;28;20050;-59
2023/03/09 02:23:27;;;;;;;0.10;0.10;;;3.10;99.90;;;;;;5013770;28;20049;-59
2023/03/09 02:26:11;;;;;;;0.13;0.13;;;3.10;99.90;;;;;;5028569;28;20401;-59
2023/03/09 02:28:36;;;;;;;;;;;3.10;99.90;;;;;;5031005;28;20467;-59
2023/03/09 02:31:02;;;;;;;0.20;0.20;;;3.10;99.90;;;;;;5031209;28;19963;-59
2023/03/09 02:33:30;;;;;;;0.40;0.40;;;3.10;99.90;;;;;;5029087;28;20444;-59
2023/03/09 02:35:59;;;;;;;0.32;0.32;;;3.10;99.90;;;;;;5011264;28;20053;-59
2023/03/09 02:38:25;;;;;;;1.42;1.35;;;3.10;99.90;;;;;;5010883;28;20090;-60
2023/03/09 02:40:52;;;;;;;1.55;0.75;;;3.10;99.90;;;;;;5027826;28;20057;-60
2023/03/09 02:43:23;;;;;;;0.10;0.10;;;3.10;99.90;;;;;;5029031;28;20094;-60
2023/03/09 02:45:49;;;;;;;0.52;0.52;;;3.10;99.90;;;;;;5030176;28;20042;-60
2023/03/09 02:48:15;;;;;;;0.47;0.47;;;3.10;99.90;;;;;;5026013;28;20045;-60
2023/03/09 02:50:41;;;;;;;2.40;2.20;;;3.10;99.90;;;;;;5029573;28;20064;-60
2023/03/09 02:53:06;;;;;;;0.40;0.40;;;3.10;99.90;;;;;;5009039;28;20610;-60
2023/03/09 02:55:32;;;;;;;0.35;0.35;;;3.10;99.90;;;;;;5027312;28;20047;-60
2023/03/09 02:57:57;;;;;;;0.30;0.30;;;3.10;99.90;;;;;;5030649;28;20496;-60
2023/03/09 03:00:24;;;;;;;0.10;0.10;;;3.10;99.90;;;;;;5007811;28;20062;-59
2023/03/09 03:02:50;;;;;;;0.65;0.65;;;3.10;99.90;;;;;;5029023;28;20037;-60
2023/03/09 03:05:16;;;;;;;0.35;0.35;;;3.10;99.90;;;;;;5030915;28;20046;-60
2023/03/09 03:07:41;;;;;;;0.55;0.55;;;3.10;99.90;;;;;;5028433;28;20046;-61
2023/03/09 03:10:08;;;;;;;0.65;0.60;;;3.10;99.90;;;;;;5023040;28;20132;-60
2023/03/09 03:12:34;;;;;;;0.57;0.57;;;3.10;99.90;;;;;;5030377;28;20045;-60
2023/03/09 03:14:59;;;;;;;0.10;0.10;;;3.10;99.90;;;;;;5011237;28;20171;-60
2023/03/09 03:17:25;;;;;;;0.73;0.73;;;3.20;99.90;;;;;;5028573;28;20128;-61
2023/03/09 03:19:52;;;;;;;4.75;1.73;;;3.10;99.90;;;;;;5020779;28;20129;-61
2023/03/09 03:22:18;;;;;;;0.10;0.10;;;3.10;99.90;;;;;;5025900;28;20045;-61
2023/03/09 03:24:43;;;;;;;0.20;0.20;;;3.10;99.90;;;;;;5030178;28;20099;-61
2023/03/09 03:27:09;;;;;;;0.20;0.20;;;3.10;99.90;;;;;;5029480;28;20405;-61
2023/03/09 03:29:34;;;;;;;0.15;0.15;;;3.10;99.90;;;;;;5028176;28;20064;-61
2023/03/09 03:32:00;;;;;;;0.47;0.47;;;3.00;99.90;;;;;;5029811;28;20041;-61
2023/03/09 03:34:26;;;;;;;0.25;0.25;;;3.00;99.90;;;;;;5029075;28;20128;-61
2023/03/09 03:36:51;;;;;;;1.65;1.55;;;3.00;99.90;;;;;;5027628;28;20596;-61
2023/03/09 03:39:17;;;;;;;1.10;0.55;;;3.00;99.90;;;;;;5029289;28;20041;-61
2023/03/09 03:41:43;;;;;;;0.28;0.28;;;3.00;99.90;;;;;;5028663;28;20515;-60
2023/03/09 03:44:08;;;;;;;18.27;1.25;;;3.00;99.90;;;;;;5029987;28;20140;-61
2023/03/09 03:46:34;;;;;;;0.73;0.65;;;2.90;99.90;;;;;;5028650;28;20055;-61
2023/03/09 03:48:59;;;;;;;0.25;0.25;;;3.00;99.90;;;;;;5028414;28;20076;-61
2023/03/09 03:51:25;;;;;;;2.13;0.80;;;3.00;99.90;;;;;;5029440;28;20437;-61
2023/03/09 03:53:51;;;;;;;0.20;0.20;;;3.00;99.90;;;;;;5027427;28;20140;-61
2023/03/09 03:56:17;;;;;;;0.60;0.60;;;3.00;99.90;;;;;;5028908;28;20049;-61
2023/03/09 03:58:43;;;;;;;0.40;0.40;;;2.90;99.90;;;;;;5028603;28;20048;-61
2023/03/09 04:01:09;;;;;;;0.30;0.30;;;2.90;99.90;;;;;;5011453;28;20053;-60
2023/03/09 04:03:35;;;;;;;5.95;2.17;;;2.90;99.90;;;;;;5027667;28;20045;-61
2023/03/09 04:06:02;;;;;;;0.63;0.63;;;2.80;99.90;;;;;;5029239;28;20037;-61
2023/03/09 04:08:28;;;;;;;1.55;1.45;;;2.80;99.90;;;;;;5028001;28;20513;-61
2023/03/09 04:10:54;;;;;;;0.22;0.22;;;2.80;99.90;;;;;;5025022;28;20041;-61
2023/03/09 04:13:20;;;;;;;0.40;0.40;;;2.80;99.90;;;;;;5028148;28;20038;-61
2023/03/09 04:15:45;;;;;;;0.25;0.25;;;2.80;99.90;;;;;;5029030;28;20500;-61
2023/03/09 04:18:11;;;;;;;2.72;1.02;;;2.70;99.90;;;;;;5026382;28;20037;-61
2023/03/09 04:20:38;;;;;;;0.13;0.13;;;2.70;99.90;;;;;;5026298;28;20045;-61
2023/03/09 04:23:04;;;;;;;0.85;0.85;;;2.70;99.90;;;;;;5028228;28;20378;-61
2023/03/09 04:25:29;;;;;;;0.10;0.10;;;2.70;99.90;;;;;;5027777;28;20040;-61
2023/03/09 04:27:56;;;;;;;0.20;0.20;;;2.70;99.90;;;;;;5026516;28;20048;-61
2023/03/09 04:30:22;;;;;;;0.45;0.45;;;2.60;99.90;;;;;;5027776;28;20060;-61
2023/03/09 04:32:48;;;;;;;3.03;1.10;;;2.60;99.90;;;;;;5027526;28;20080;-61
2023/03/09 04:35:15;;;;;;;1.17;0.82;;;2.80;99.90;;;;;;5026734;28;20065;-60
2023/03/09 04:37:40;;;;;;;0.95;0.95;;;2.70;99.90;;;;;;5026753;28;20045;-61
2023/03/09 04:40:07;;;;;;;0.28;0.28;;;2.80;99.90;;;;;;5023665;28;20056;-60
2023/03/09 04:42:33;;;;;;;0.38;0.38;;;2.70;99.90;;;;;;5027270;28;20037;-61
2023/03/09 04:44:58;;;;;;;0.50;0.50;;;2.80;99.90;;;;;;5026584;28;20044;-61
2023/03/09 04:47:24;;;;;;;0.55;0.55;;;2.80;99.90;;;;;;5027131;28;20393;-61
2023/03/09 04:49:49;;;;;;;0.40;0.40;;;2.80;99.90;;;;;;5028310;28;20037;-61
2023/03/09 04:52:15;;;;;;;0.10;0.10;;;2.80;99.90;;;;;;5027417;28;20473;-60
2023/03/09 04:54:41;;;;;;;2.65;2.05;;;2.80;99.90;;;;;;5027845;28;20128;-61
2023/03/09 04:57:07;;;;;;;0.63;0.63;;;2.80;99.90;;;;;;5026486;28;20037;-61
2023/03/09 04:59:33;;;;;;;0.20;0.20;;;2.80;99.90;;;;;;5026168;28;20036;-61
2023/03/09 05:01:58;;;;;;;0.35;0.35;;;2.80;99.90;;;;;;5023301;28;20037;-61
2023/03/09 05:04:24;;;;;;;0.30;0.30;;;2.80;99.90;;;;;;5009204;28;20504;-61
2023/03/09 05:06:49;;;;;;;0.55;0.55;;;2.80;99.90;;;;;;5027378;28;20029;-61
2023/03/09 05:09:15;;;;;;;0.60;0.60;;;2.80;99.90;;;;;;5025756;28;20041;-61
2023/03/09 05:11:42;;;;;;;0.32;0.32;;;2.90;99.90;;;;;;5026684;28;20045;-61
2023/03/09 05:14:08;;;;;;;0.10;0.10;;;2.80;99.90;;;;;;5007697;28;20071;-60
2023/03/09 05:16:33;;;;;;;0.40;0.40;;;2.80;99.90;;;;;;5027876;28;20053;-61
2023/03/09 05:18:59;;;;;;;0.38;0.38;;;2.80;99.90;;;;;;5026034;28;20427;-61
2023/03/09 05:21:25;;;;;;;1.75;0.68;;;2.80;99.90;;;;;;5026944;28;20042;-61
2023/03/09 05:23:50;;;;;;;1.15;1.08;;;2.80;99.90;;;;;;5026932;28;20419;-61
2023/03/09 05:26:16;;;;;;;0.10;0.10;;;2.80;99.90;;;;;;5009405;28;20058;-61
2023/03/09 05:28:42;;;;;;;0.65;0.65;;;2.80;99.90;;;;;;5026620;28;20060;-62
2023/03/09 05:31:09;;;;;;;0.10;0.10;;;2.80;99.90;;;;;;5027757;28;20428;-62
2023/03/09 05:33:35;;;;;;;0.57;0.57;;;2.80;99.90;;;;;;5025605;28;20497;-62
2023/03/09 05:36:01;;;;;;;0.57;0.57;;;2.80;99.90;;;;;;5023675;28;20056;-61
2023/03/09 05:38:27;;;;;;;0.17;0.17;;;2.80;99.90;;;;;;5024008;28;20049;-62
2023/03/09 05:40:52;;;;;;;1.08;1.02;;;2.80;99.90;;;;;;5008236;28;20462;-62
2023/03/09 05:43:18;;;;;;;1.67;1.35;;;2.80;99.90;;;;;;5026101;28;20038;-62
2023/03/09 05:45:44;;;;;;;0.85;0.85;;;2.80;99.90;;;;;;5027587;28;20053;-62
2023/03/09 05:48:10;;;;;;;0.10;0.10;;;2.80;99.90;;;;;;5026480;28;20055;-62
2023/03/09 05:50:38;;;;;;;0.60;0.60;;;2.80;99.90;;;;;;5000927;28;20073;-62
2023/03/09 05:53:03;;;;;;;0.15;0.15;;;2.80;99.90;;;;;;5027470;28;20104;-62
2023/03/09 05:55:29;;;;;;;0.30;0.30;;;2.80;99.90;;;;;;5025639;28;20076;-62
2023/03/09 05:57:54;;;;;;;0.65;0.65;;;2.80;99.90;;;;;;5026397;28;20060;-61
2023/03/09 06:00:20;;;;;;;0.60;0.60;;;2.80;99.90;;;;;;5024937;28;20500;-61
2023/03/09 06:02:46;;;;;;;0.40;0.40;;;2.80;99.90;;;;;;5025070;28;20456;-62
2023/03/09 06:05:11;;;;;;;0.17;0.17;;;2.80;99.90;;;;;;5008948;28;20072;-61
2023/03/09 06:07:37;;;;;;;0.52;0.52;;;2.80;99.90;;;;;;5027404;28;20049;-62
2023/03/09 06:10:03;;;;;;;4.53;2.05;;;2.80;99.90;;;;;;5025231;28;20091;-61
2023/03/09 06:12:28;;;;;;;0.30;0.30;;;2.80;99.90;;;;;;5027292;28;20400;-61
2023/03/09 06:14:54;;;;;;;0.30;0.30;;;2.80;99.90;;;;;;5026789;28;20061;-62
2023/03/09 06:17:20;;;;;;;0.10;0.10;;;2.80;99.90;;;;;;5026704;28;20037;-62
2023/03/09 06:19:46;;;;;;;1.48;1.38;;;2.80;99.90;;;;;;5004485;28;20048;-62
2023/03/09 06:22:11;;;;;;;0.40;0.40;;;2.80;99.90;;;;;;5024505;28;20046;-62
2023/03/09 06:24:37;;;;;;;1.45;1.00;;;2.80;99.90;;;;;;5026787;28;20045;-62
2023/03/09 06:27:03;;;;;;;0.45;0.45;;;2.80;99.90;;;;;;5026454;28;20128;-61
2023/03/09 06:29:29;;;;;;;1.10;1.08;;;2.70;99.90;;;;;;5024758;28;20564;-61
2023/03/09 06:31:54;;;;;;;1.20;1.13;;;2.70;99.90;;;;;;5024928;28;20069;-61
2023/03/09 06:34:20;;;;;;;0.10;0.10;;;2.70;99.90;;;;;;5009568;28;20088;-61
2023/03/09 06:36:46;;;;;;;0.60;0.60;;;2.70;99.90;;;;;;5025818;28;20116;-61
2023/03/09 06:39:12;;;;;;;0.10;0.10;;;2.70;99.90;;;;;;5026148;28;20641;-61
2023/03/09 06:41:38;;;;;;;1.27;1.17;;;2.70;99.90;;;;;;5026651;28;20667;-61
2023/03/09 06:44:04;;;;;;;0.10;0.10;;;2.60;99.90;;;;;;5027599;28;20124;-61
2023/03/09 06:46:30;;;;;;;0.22;0.22;;;2.60;99.90;;;;;;5028933;28;20099;-61
2023/03/09 06:48:55;;;;;;;0.73;0.73;;;2.70;99.90;;;;;;5012323;28;20521;-61
2023/03/09 06:51:22;;;;;;;1.30;0.90;;;2.60;99.90;;;;;;5030023;28;20091;-61
2023/03/09 06:53:48;;;;;;;0.65;0.65;;;2.70;99.90;;;;;;5030262;28;20041;-61
2023/03/09 06:56:14;;;;;;;0.45;0.45;;;2.70;99.90;;;;;;5012820;28;20555;-61
2023/03/09 06:58:40;;;;;;;1.05;0.88;;;2.70;99.90;;;;;;5028759;28;20084;-61
2023/03/09 07:01:10;;;;;;;0.30;0.30;;;2.70;99.90;;;;;;5025843;28;20520;-61
2023/03/09 07:03:37;;;;;;;0.82;0.82;;;2.70;99.90;;;;;;5029935;28;20041;-61
2023/03/09 07:06:03;;;;;;;0.20;0.20;;;2.80;99.90;;;;;;5028521;28;20136;-61
2023/03/09 07:08:29;;;;;;;0.55;0.55;;;2.80;99.90;;;;;;5024481;28;20457;-61
2023/03/09 07:10:55;;;;;;;0.35;0.35;;;2.90;99.90;;;;;;5028504;28;20041;-60
2023/03/09 07:13:20;;;;;;;1.52;1.17;;;2.90;99.90;;;;;;5025130;28;20038;-62
2023/03/09 07:15:46;;;;;;;0.40;0.40;;;2.80;99.90;;;;;;5024840;28;20397;-61
2023/03/09 07:18:12;;;;;;;0.75;0.75;;;2.90;99.90;;;;;;5030178;28;20050;-61
2023/03/09 07:20:39;;;;;;;0.30;0.30;;;2.90;99.90;;;;;;5020042;28;20067;-61
2023/03/09 07:23:05;;;;;;;0.17;0.17;;;3.00;99.90;;;;;;5027936;28;20393;-61
2023/03/09 07:25:34;;;;;;;0.82;0.60;;;3.00;99.90;;;;;;5027251;28;20037;-61
2023/03/09 07:28:02;;;;;;;0.20;0.20;;;3.10;99.90;;;;;;5026605;28;20038;-61
2023/03/09 07:30:28;;;;;;;0.52;0.52;;;3.20;99.90;;;;;;5027737;28;20091;-61
2023/03/09 07:32:58;;;;;;;0.10;0.10;;;3.30;99.90;;;;;;5030153;28;20056;-61
2023/03/09 07:35:24;;;;;;;0.40;0.40;;;3.30;99.90;;;;;;5027737;28;20038;-61
2023/03/09 07:37:50;;;;;;;1.10;1.10;;;3.40;99.90;;;;;;5030066;28;20038;-61
2023/03/09 07:40:17;;;;;;;0.17;0.17;;;3.40;99.90;;;;;;5028654;28;20049;-61
2023/03/09 07:42:42;;;;;;;1.00;0.95;;;3.50;99.90;;;;;;5027747;28;20810;-61
2023/03/09 07:45:09;;;;;;;0.22;0.22;;;3.40;99.90;;;;;;5029541;28;20058;-61
2023/03/09 07:47:35;;;;;;;1.85;0.90;;;3.50;99.90;;;;;;5028921;28;20378;-61
2023/03/09 07:50:01;;;;;;;1.10;1.05;;;3.50;99.90;;;;;;5028631;28;20037;-60
2023/03/09 07:52:30;;;;;;;0.73;0.73;;;3.50;99.90;;;;;;5028463;28;20042;-61
2023/03/09 07:55:00;;;;;;;0.10;0.10;;;3.50;99.90;;;;;;5026800;28;20053;-61
2023/03/09 07:57:31;;;;;;;0.10;0.10;;;3.60;99.90;;;;;;5021801;28;20046;-61
2023/03/09 07:59:57;;;;;;;0.10;0.10;;;3.60;99.90;;;;;;5029275;28;20084;-61
2023/03/09 08:02:23;;;;;;;0.20;0.20;;;3.60;99.90;;;;;;5028502;28;20328;-61
2023/03/09 08:04:48;;;;;;;0.10;0.10;;;3.70;99.90;;;;;;5029038;28;20054;-61
2023/03/09 08:07:15;;;;;;;2.55;1.20;;;3.70;99.90;;;;;;5028465;28;20041;-61
2023/03/09 08:09:41;;;;;;;0.10;0.10;;;3.70;99.90;;;;;;5026793;28;20065;-61
2023/03/09 08:12:07;;;;;;;0.30;0.30;;;3.70;99.90;;;;;;5028141;28;20127;-61
2023/03/09 08:14:32;;;;;;;0.10;0.10;;;3.80;99.90;;;;;;5028715;28;20087;-61
2023/03/09 08:16:58;;;;;;;0.43;0.43;;;3.90;99.90;;;;;;5026117;28;20034;-61
2023/03/09 08:19:24;;;;;;;0.10;0.10;;;3.90;99.90;;;;;;5025118;28;20052;-61
2023/03/09 08:21:50;;;;;;;0.10;0.10;;;3.90;99.90;;;;;;5022336;28;20045;-61
2023/03/09 08:24:15;;;;;;;3.78;1.17;;;4.00;99.90;;;;;;5027067;28;20068;-61
2023/03/09 08:26:42;;;;;;;0.95;0.90;;;4.00;99.90;;;;;;5028395;28;20489;-61
2023/03/09 08:29:08;;;;;;;1.45;1.17;;;4.00;99.90;;;;;;5028324;28;20038;-61
2023/03/09 08:31:35;;;;;;;0.22;0.22;;;4.10;99.90;;;;;;5025717;28;20045;-61
2023/03/09 08:34:02;;;;;;;1.38;1.10;;;4.10;99.90;;;;;;5028553;28;20133;-60
2023/03/09 08:36:28;;;;;;;1.10;1.00;;;4.20;99.90;;;;;;5029437;28;20052;-61
2023/03/09 08:38:55;;;;;;;0.10;0.10;;;4.20;99.90;;;;;;5025747;28;20110;-61
2023/03/09 08:41:21;;;;;;;0.40;0.40;;;4.30;99.90;;;;;;5027036;28;20061;-61
2023/03/09 08:43:47;;;;;;;0.85;0.73;;;4.30;99.90;;;;;;5028544;28;20041;-61
2023/03/09 08:46:13;;;;;;;0.10;0.10;;;4.30;99.90;;;;;;5027894;28;20076;-61
2023/03/09 08:48:39;;;;;;;0.20;0.20;;;4.40;99.90;;;;;;5027149;28;20044;-61
2023/03/09 08:51:07;;;;;;;0.43;0.43;;;4.40;99.90;;;;;;5028583;28;20409;-61
2023/03/09 08:53:33;;;;;;;1.50;0.80;;;4.40;99.90;;;;;;5026707;28;20038;-61
2023/03/09 08:56:03;;;;;;;0.63;0.63;;;4.50;99.90;;;;;;5027943;28;20080;-61
2023/03/09 08:58:29;;;;;;;0.25;0.25;;;4.60;99.90;;;;;;5020755;28;20099;-61
2023/03/09 09:00:54;;;;;;;1.55;1.45;;;4.70;99.90;;;;;;5028188;28;20059;-61
2023/03/09 09:03:20;;;;;;;8.48;2.88;;;4.80;99.90;;;;;;5028092;28;20646;-61
2023/03/09 09:05:46;;;;;;;0.50;0.50;;;4.80;99.90;;;;;;5026382;28;20141;-61
2023/03/09 09:08:11;;;;;;;0.20;0.20;;;4.80;99.90;;;;;;5028343;28;20556;-61
2023/03/09 09:10:45;;;;;;;0.10;0.10;;;4.80;99.90;;;;;;5023318;28;20045;-61
2023/03/09 09:13:11;;;;;;;0.10;0.10;;;4.80;99.90;;;;;;5023050;28;20053;-61
2023/03/09 09:15:39;;;;;;;0.28;0.28;;;4.90;99.90;;;;;;5027224;28;20068;-61
2023/03/09 09:18:05;;;;;;;0.55;0.55;;;5.10;99.90;;;;;;5028580;28;20045;-61
2023/03/09 09:20:30;;;;;;;0.10;0.10;;;5.20;99.90;;;;;;5014341;28;20124;-61
2023/03/09 09:22:56;;;;;;;0.25;0.25;;;5.20;99.90;;;;;;5027292;28;20116;-61
2023/03/09 09:25:22;;;;;;;0.35;0.35;;;5.10;99.90;;;;;;5008329;28;20130;-61
2023/03/09 09:27:50;;;;;;;0.10;0.10;;;5.10;99.90;;;;;;5024174;28;20029;-61
2023/03/09 09:30:19;;;;;;;0.35;0.35;;;5.20;99.90;;;;;;5027374;28;20057;-61
2023/03/09 09:32:45;;;;;;;0.17;0.17;;;5.20;99.90;;;;;;5027558;28;20057;-61
2023/03/09 09:35:11;;;;;;;1.00;0.68;;;5.30;99.90;;;;;;5026518;28;20042;-61
2023/03/09 09:37:38;;;;;;;0.13;0.13;;;5.60;99.90;;;;;;5024263;28;20046;-61
2023/03/09 09:40:04;;;;;;;0.32;0.32;;;5.90;99.90;;;;;;5022964;28;20049;-61
2023/03/09 09:42:39;;;;;;;0.30;0.30;;;6.30;99.90;;;;;;5026644;28;20099;-61
2023/03/09 09:45:23;;;;;;;3.70;0.82;;;6.50;99.90;;;;;;5026290;28;20087;-61
2023/03/09 09:47:49;;;;;;;0.55;0.55;;;7.00;99.90;;;;;;5024480;28;20481;-61
2023/03/09 09:50:15;;;;;;;0.40;0.40;;;7.10;99.90;;;;;;5026700;28;20735;-61
2023/03/09 09:53:03;;;;;;;0.77;0.77;;;7.30;99.90;;;;;;5027812;28;20037;-61
2023/03/09 09:55:34;;;;;;;0.10;0.10;;;7.10;99.90;;;;;;5016182;28;20076;-61
2023/03/09 09:58:11;;;;;;;0.20;0.20;;;7.00;99.90;;;;;;5009429;28;20056;-61
2023/03/09 10:00:44;;;;;;;0.10;0.10;;;6.90;99.90;;;;;;5021704;28;20049;-61
2023/03/09 10:03:21;;;;;;;0.13;0.13;;;6.80;99.90;;;;;;5025839;28;20404;-61
2023/03/09 10:06:18;;;;;;;0.10;0.10;;;6.90;99.90;;;;;;5027486;28;20060;-62
2023/03/09 10:08:51;;;;;;;0.10;0.10;;;7.20;99.90;;;;;;5024603;28;20088;-61
2023/03/09 10:11:27;;;;;;;0.10;0.10;;;7.60;99.90;;;;;;5026028;28;20041;-61
2023/03/09 10:14:17;;;;;;;0.47;0.47;;;7.90;99.90;;;;;;5024175;28;20072;-61
2023/03/09 10:16:52;;;;;;;0.32;0.32;;;7.90;99.90;;;;;;5025176;28;20073;-61
2023/03/09 10:19:31;;;;;;;0.63;0.63;;;7.90;99.90;;;;;;5026083;28;20037;-61
2023/03/09 10:22:24;;;;;;;0.13;0.13;;;7.80;99.90;;;;;;5028877;28;20805;-61
2023/03/09 10:24:51;;;;;;;1.08;0.98;;;7.40;99.90;;;;;;5025094;28;20049;-61
2023/03/09 10:27:38;;;;;;;0.50;0.50;;;7.50;99.90;;;;;;5013235;28;20143;-61
2023/03/09 10:30:10;;;;;;;0.50;0.50;;;7.70;99.90;;;;;;5029606;28;20053;-61
2023/03/09 10:32:54;;;;;;;0.65;0.65;;;7.50;99.90;;;;;;5020888;28;20512;-61
2023/03/09 10:35:51;;;;;;;0.10;0.10;;;7.30;99.90;;;;;;5031281;28;20038;-61
2023/03/09 10:38:19;;;;;;;0.20;0.20;;;7.30;99.90;;;;;;5020621;28;20200;-61
2023/03/09 10:40:55;;;;;;;1.80;1.70;;;7.40;99.90;;;;;;5029399;28;20547;-62
2023/03/09 10:43:48;;;;;;;0.10;0.10;;;7.30;99.90;;;;;;5030832;28;20053;-62
2023/03/09 10:46:22;;;;;;;0.20;0.20;;;7.20;99.90;;;;;;5028022;28;20084;-62
2023/03/09 10:48:51;;;;;;;0.10;0.10;;;7.10;99.90;;;;;;5029999;28;20045;-62
2023/03/09 10:51:21;;;;;;;0.10;0.10;;;7.10;99.90;;;;;;5030197;28;20060;-61
2023/03/09 10:53:48;;;;;;;0.10;0.10;;;7.10;99.90;;;;;;5028717;28;20143;-61
2023/03/09 10:56:27;;;;;;;0.10;0.10;;;7.00;99.90;;;;;;5030621;28;20447;-62
2023/03/09 10:59:07;;;;;;;0.85;0.85;;;6.80;99.90;;;;;;5026109;28;20045;-61
2023/03/09 11:01:43;;;;;;;0.10;0.10;;;6.70;99.90;;;;;;5029543;28;20045;-61
2023/03/09 11:04:21;;;;;;;1.77;1.33;;;6.70;99.90;;;;;;5011237;28;20217;-61
2023/03/09 11:06:51;;;;;;;5.93;1.08;;;6.70;99.90;;;;;;5019534;28;20091;-61
2023/03/09 11:09:31;;;;;;;0.35;0.35;;;6.80;99.90;;;;;;5028563;28;20041;-61
2023/03/09 11:12:21;;;;;;;0.17;0.17;;;6.80;99.90;;;;;;5021629;28;20430;-61
2023/03/09 11:15:01;;;;;;;0.10;0.10;;;6.70;99.90;;;;;;4998430;28;20049;-61
2023/03/09 11:17:35;;;;;;;0.17;0.17;;;6.70;99.90;;;;;;5026237;28;20054;-61
2023/03/09 11:20:24;;;;;;;0.50;0.50;;;6.80;99.90;;;;;;5025267;28;20045;-61
2023/03/09 11:23:16;;;;;;;0.28;0.28;;;6.80;99.90;;;;;;5023580;28;20395;-61
2023/03/09 11:26:00;;;;;;;0.65;0.65;;;6.60;99.90;;;;;;5029643;28;20038;-61
2023/03/09 11:28:58;;;;;;;1.27;0.82;;;6.60;99.90;;;;;;5029385;28;20496;-62
2023/03/09 11:31:29;;;;;;;0.35;0.35;;;6.50;99.90;;;;;;5016908;28;20056;-61
2023/03/09 11:33:57;;;;;;;0.20;0.20;;;6.50;99.90;;;;;;5021645;28;20033;-61
2023/03/09 11:36:31;;;;;;;0.20;0.20;;;6.50;99.90;;;;;;5022109;28;20042;-60
2023/03/09 11:39:03;;;;;;;0.10;0.10;;;6.50;99.90;;;;;;5020243;28;20593;-61
2023/03/09 11:41:33;;;;;;;0.10;0.10;;;6.60;99.90;;;;;;5027566;28;20235;-61
2023/03/09 11:44:09;;;;;;;0.20;0.20;;;6.60;99.90;;;;;;5028634;28;20041;-61
2023/03/09 11:46:36;;;;;;;0.93;0.93;;;6.60;99.90;;;;;;5010494;28;20580;-62
2023/03/09 11:49:25;;;;;;;0.20;0.20;;;6.70;99.90;;;;;;5027550;28;20068;-61
2023/03/09 11:51:52;;;;;;;0.25;0.25;;;6.80;99.90;;;;;;5027405;28;20039;-61
2023/03/09 11:54:35;;;;;;;0.10;0.10;;;6.90;99.90;;;;;;5011144;28;20053;-61
2023/03/09 11:57:08;;;;;;;32.30;1.30;;;6.90;99.90;;;;;;5028630;28;20038;-61
2023/03/09 11:59:54;;;;;;;0.43;0.43;;;6.80;99.90;;;;;;5028958;28;20042;-61
2023/03/09 12:02:31;;;;;;;0.32;0.32;;;6.80;99.90;;;;;;5026556;28;20100;-61
2023/03/09 12:04:57;;;;;;;0.38;0.38;;;6.80;99.90;;;;;;5026275;28;20343;-61
2023/03/09 12:07:37;;;;;;;4.03;2.65;;;6.80;99.90;;;;;;5029046;28;20164;-61
2023/03/09 12:10:25;;;;;;;0.35;0.35;;;6.80;99.90;;;;;;5009629;28;20045;-61
2023/03/09 12:13:09;;;;;;;0.10;0.10;;;6.80;99.90;;;;;;5028043;28;20053;-61
2023/03/09 12:15:45;;;;;;;0.47;0.47;;;6.90;99.90;;;;;;5023762;28;20056;-61
2023/03/09 12:18:28;;;;;;;0.93;0.40;;;6.90;99.90;;;;;;5025209;28;20049;-61
2023/03/09 12:20:56;;;;;;;0.10;0.10;;;6.90;99.90;;;;;;5021720;28;20512;-61
2023/03/09 12:23:39;;;;;;;0.10;0.10;;;6.80;99.90;;;;;;5020807;28;20789;-61
2023/03/09 12:26:20;;;;;;;0.20;0.20;;;6.80;99.90;;;;;;5026854;28;20528;-61
2023/03/09 12:29:00;;;;;;;0.68;0.68;;;6.80;99.90;;;;;;5029012;28;20397;-61
2023/03/09 12:31:32;;;;;;;1.27;1.17;;;6.80;99.90;;;;;;5023172;28;20081;-61
2023/03/09 12:33:57;;;;;;;0.57;0.57;;;6.60;99.90;;;;;;5025386;28;20041;-61
2023/03/09 12:36:23;;;;;;;0.57;0.57;;;6.60;99.90;;;;;;5025429;28;20045;-61
2023/03/09 12:39:31;;;;;;;0.10;0.10;;;6.60;99.90;;;;;;5027399;28;20053;-61
2023/03/09 12:42:05;;;;;;;1.25;1.15;;;6.70;99.90;;;;;;5026982;28;20049;-61
2023/03/09 12:44:43;;;;;;;0.65;0.55;;;6.70;99.90;;;;;;5008337;28;20045;-61
2023/03/09 12:47:21;;;;;;;0.10;0.10;;;6.80;99.90;;;;;;5023970;28;20089;-61
2023/03/09 12:49:52;;;;;;;1.38;0.55;;;6.90;99.90;;;;;;5027391;28;20083;-61
2023/03/09 12:52:32;;;;;;;0.10;0.10;;;6.90;99.90;;;;;;5026436;28;20041;-59
2023/03/09 12:55:12;;;;;;;0.95;0.65;;;6.80;99.90;;;;;;5027680;28;20370;-60
2023/03/09 12:57:38;;;;;;;0.20;0.20;;;6.80;99.90;;;;;;5009954;28;20045;-60
2023/03/09 13:00:27;;;;;;;1.00;0.85;;;6.70;99.90;;;;;;5027177;28;20048;-60
2023/03/09 13:03:12;;;;;;;0.38;0.38;;;6.70;99.90;;;;;;5027534;28;20482;-60
2023/03/09 13:05:47;;;;;;;1.23;1.15;;;6.60;99.90;;;;;;5024277;28;20049;-59
2023/03/09 13:08:21;;;;;;;0.10;0.10;;;6.70;99.90;;;;;;5011400;28;20048;-60
2023/03/09 13:10:48;;;;;;;0.10;0.10;;;6.60;99.90;;;;;;5026810;28;20118;-60